Time;durP1;ratioP1;P1;durP2;ratioP2;P2;SDS_P1;SDS_P2;PMS_P1;PMS_P2;Temp;Humidity;BMP_temperature;BMP_pressure;BME280_temperature;BME280_humidity;BME280_pressure;Samples;Min_cycle;Max_cycle;Signal;HPM_P1;HPM_P2
2022/04/04 16:52:10;;;;;;;0.97;0.97;;;;;;;13.24;39.02;94365.88;2614679;47;20719;-74
2022/04/04 16:54:39;;;;;;;2.03;1.93;;;;;;;12.74;40.92;94362.75;2615697;46;20180;-73
2022/04/04 16:57:08;;;;;;;2.07;1.87;;;;;;;12.49;39.47;94358.72;2615577;47;20165;-74
2022/04/04 16:59:36;;;;;;;2.33;2.23;;;;;;;12.23;39.68;94363.84;2614736;47;20282;-73
2022/04/04 17:02:06;;;;;;;1.50;1.47;;;;;;;11.55;40.79;94349.53;2615248;54;20161;-75
2022/04/04 17:04:34;;;;;;;2.30;1.70;;;;;;;11.82;40.42;94350.88;2615089;47;20167;-75
2022/04/04 17:07:04;;;;;;;1.37;1.30;;;;;;;11.43;40.73;94355.63;2614959;54;20161;-75
2022/04/04 17:09:37;;;;;;;1.40;1.40;;;;;;;11.71;42.71;94369.78;2614840;47;20165;-74
2022/04/04 17:12:06;;;;;;;1.70;1.23;;;;;;;11.78;41.31;94382.00;2615432;54;20137;-74
2022/04/04 17:14:35;;;;;;;2.00;1.80;;;;;;;12.05;44.98;94375.53;2614475;54;20145;-73
2022/04/04 17:17:06;;;;;;;2.53;0.90;;;;;;;11.84;43.23;94371.53;2614740;46;20161;-73
2022/04/04 17:19:35;;;;;;;1.50;1.30;;;;;;;11.66;41.17;94368.94;2614217;54;20688;-73
2022/04/04 17:22:04;;;;;;;2.40;1.80;;;;;;;11.80;43.49;94348.72;2615484;46;20153;-75
2022/04/04 17:24:36;;;;;;;1.00;1.00;;;;;;;12.09;43.23;94365.00;2612656;54;20176;-77
2022/04/04 17:27:05;;;;;;;2.37;1.83;;;;;;;12.09;42.09;94384.88;2614775;54;20157;-74
2022/04/04 17:29:33;;;;;;;1.27;1.27;;;;;;;11.96;41.11;94377.47;2613578;54;20141;-75
2022/04/04 17:32:05;;;;;;;2.40;2.20;;;;;;;11.99;42.26;94386.75;2614199;47;20411;-77
2022/04/04 17:34:35;;;;;;;1.17;1.17;;;;;;;11.89;42.41;94373.03;2613107;54;20260;-77
2022/04/04 17:37:04;;;;;;;2.67;2.03;;;;;;;11.89;41.70;94370.22;2613844;54;20160;-75
2022/04/04 17:39:36;;;;;;;2.00;1.87;;;;;;;12.05;41.65;94393.28;2619148;54;20175;-81
2022/04/04 17:42:06;;;;;;;2.97;2.17;;;;;;;11.69;43.81;94387.47;2617854;47;20157;-76
2022/04/04 17:44:35;;;;;;;1.77;1.67;;;;;;;11.36;42.99;94400.13;2613094;54;20163;-78
2022/04/04 17:47:03;;;;;;;1.73;1.63;;;;;;;10.84;42.67;94356.25;2615735;46;20223;-77
2022/04/04 17:49:33;;;;;;;2.33;1.87;;;;;;;10.98;44.35;94387.81;2614145;54;20156;-77
2022/04/04 17:52:02;;;;;;;3.83;2.67;;;;;;;11.30;44.58;94397.16;2615095;31;20830;-76
2022/04/04 17:54:30;;;;;;;1.90;1.80;;;;;;;11.23;42.69;94384.19;2614533;53;20410;-77
2022/04/04 18:01:04;;;;;;;1.63;1.63;;;;;;;10.09;42.81;94238.16;2612237;47;20745;-76
2022/04/04 18:04:03;;;;;;;1.27;1.13;;;;;;;10.86;44.35;94342.16;2612633;47;20177;-76
2022/04/04 18:06:32;;;;;;;3.80;2.07;;;;;;;10.93;43.79;94360.78;2612806;47;20751;-76
2022/04/04 18:09:02;;;;;;;1.60;1.50;;;;;;;10.92;43.84;94402.53;2612515;47;20199;-75
2022/04/04 18:11:37;;;;;;;4.80;1.60;;;;;;;10.54;43.80;94413.50;2614076;54;20161;-76
2022/04/04 18:14:32;;;;;;;1.17;1.17;;;;;;;9.92;44.74;94361.44;2613343;54;20203;-74
2022/04/04 18:22:56;;;;;;;3.70;1.20;;;;;;;10.88;48.46;94396.03;2613984;47;20133;-72
2022/04/04 18:25:26;;;;;;;1.43;1.33;;;;;;;10.93;43.74;94400.44;2613942;54;20169;-73
2022/04/04 18:27:55;;;;;;;2.17;1.20;;;;;;;11.37;50.20;94415.75;2613987;54;20161;-74
2022/04/04 18:30:24;;;;;;;4.80;1.63;;;;;;;12.02;48.35;94425.16;2614348;54;20191;-74
2022/04/04 18:32:53;;;;;;;1.13;1.10;;;;;;;12.10;44.96;94397.66;2612321;47;20165;-74
2022/04/04 18:35:22;;;;;;;2.43;2.27;;;;;;;12.19;47.54;94421.25;2614426;39;20559;-74
2022/04/04 18:37:51;;;;;;;1.88;1.77;;;;;;;12.33;48.11;94424.41;2613450;54;20407;-74
2022/04/04 18:40:22;;;;;;;2.20;1.77;;;;;;;12.97;46.49;94424.34;2613712;47;20191;-74
2022/04/04 18:42:51;;;;;;;6.87;2.30;;;;;;;13.29;45.74;94423.50;2614055;47;20224;-73
2022/04/04 18:45:20;;;;;;;1.27;1.27;;;;;;;11.98;40.83;94396.66;2614272;39;20243;-73
2022/04/04 18:47:49;;;;;;;2.58;2.42;;;;;;;11.67;41.72;94426.41;2612503;47;20964;-75
2022/04/04 18:50:19;;;;;;;2.03;1.93;;;;;;;11.28;43.52;94425.44;2614217;54;20156;-74
2022/04/04 18:52:48;;;;;;;1.23;1.00;;;;;;;10.70;44.12;94418.91;2614248;54;20183;-74
2022/04/04 18:55:17;;;;;;;0.90;0.90;;;;;;;10.08;44.96;94423.44;2614487;47;20169;-74
2022/04/04 18:57:49;;;;;;;0.87;0.87;;;;;;;10.00;46.00;94421.09;2615596;54;20140;-73
2022/04/04 19:00:19;;;;;;;4.53;0.97;;;;;;;9.01;47.11;94387.53;2614925;54;20149;-74
2022/04/04 19:02:48;;;;;;;0.80;0.80;;;;;;;8.72;48.67;94414.06;2615453;54;20165;-74
2022/04/04 19:05:16;;;;;;;0.57;0.57;;;;;;;9.10;48.52;94414.69;2614805;47;20169;-74
2022/04/04 19:07:45;;;;;;;0.60;0.60;;;;;;;8.98;48.83;94414.25;2614199;54;20153;-74
2022/04/04 19:10:16;;;;;;;0.50;0.50;;;;;;;8.94;49.50;94394.34;2614367;54;20149;-74
2022/04/04 19:12:48;;;;;;;1.27;1.20;;;;;;;8.98;49.16;94400.13;2615931;39;20519;-74
2022/04/04 19:15:17;;;;;;;0.70;0.70;;;;;;;9.29;50.68;94399.06;2616200;54;20152;-73
2022/04/04 19:17:45;;;;;;;1.70;0.93;;;;;;;9.47;49.88;94404.56;2615230;54;20161;-74
2022/04/04 19:20:14;;;;;;;0.60;0.60;;;;;;;9.80;47.45;94401.41;2616328;47;20164;-75
2022/04/04 19:22:43;;;;;;;0.57;0.57;;;;;;;10.24;48.21;94396.38;2615806;54;20164;-75
2022/04/04 19:25:12;;;;;;;0.57;0.57;;;;;;;10.57;49.33;94395.19;2614932;46;20215;-74
2022/04/04 19:27:41;;;;;;;0.77;0.77;;;;;;;10.85;48.85;94386.03;2614612;54;20192;-75
2022/04/04 19:30:16;;;;;;;1.30;0.70;;;;;;;10.85;45.32;94397.38;2614277;54;20161;-75
2022/04/04 19:32:45;;;;;;;1.33;1.00;;;;;;;11.17;47.97;94367.06;2614418;54;20168;-75
2022/04/04 19:35:14;;;;;;;0.77;0.77;;;;;;;11.09;44.78;94389.50;2615563;39;20247;-75
2022/04/04 19:37:43;;;;;;;0.67;0.67;;;;;;;10.89;46.19;94392.53;2614323;47;20176;-75
2022/04/04 19:40:15;;;;;;;0.75;0.75;;;;;;;10.91;47.39;94366.38;2614711;46;20408;-75
2022/04/04 19:42:43;;;;;;;0.80;0.80;;;;;;;10.67;44.85;94386.97;2614812;54;20157;-76
2022/04/04 19:45:15;;;;;;;0.90;0.90;;;;;;;10.77;46.22;94383.00;2614821;47;20149;-76
2022/04/04 19:47:49;;;;;;;2.80;0.80;;;;;;;10.79;45.91;94380.94;2612721;47;20184;-75
2022/04/04 19:50:18;;;;;;;0.80;0.80;;;;;;;11.45;48.45;94377.66;2612846;54;20145;-75
2022/04/04 19:52:47;;;;;;;0.60;0.60;;;;;;;11.46;45.79;94356.41;2612939;54;20203;-75
2022/04/04 19:55:19;;;;;;;0.63;0.60;;;;;;;10.83;44.21;94377.47;2614869;47;20168;-74
2022/04/04 19:57:47;;;;;;;1.53;1.17;;;;;;;9.60;46.30;94366.81;2614465;54;20169;-76
2022/04/04 20:00:20;;;;;;;1.37;1.27;;;;;;;8.71;48.56;94361.81;2612786;54;20172;-74
2022/04/04 20:02:50;;;;;;;1.77;1.43;;;;;;;7.93;50.69;94360.38;2614550;39;20487;-73
2022/04/04 20:05:18;;;;;;;1.00;1.00;;;;;;;8.19;50.22;94363.47;2615154;47;20164;-75
2022/04/04 20:07:47;;;;;;;1.57;1.47;;;;;;;8.38;49.87;94345.81;2615279;47;20161;-74
2022/04/04 20:10:16;;;;;;;1.07;1.03;;;;;;;9.38;53.19;94363.31;2615023;47;20672;-75
2022/04/04 20:12:45;;;;;;;1.20;1.20;;;;;;;9.72;47.75;94347.41;2614728;46;20168;-74
2022/04/04 20:15:16;;;;;;;4.03;1.13;;;;;;;10.26;46.86;94345.47;2615681;54;20279;-75
2022/04/04 20:17:49;;;;;;;2.17;1.50;;;;;;;9.52;47.17;94336.19;2614933;46;20153;-74
2022/04/04 20:20:18;;;;;;;4.10;2.03;;;;;;;10.71;52.14;94340.34;2615475;39;20531;-76
2022/04/04 20:22:47;;;;;;;2.50;2.35;;;;;;;11.23;47.45;94347.34;2615106;54;20517;-76
2022/04/04 20:25:16;;;;;;;2.07;1.70;;;;;;;12.02;49.30;94346.41;2615483;54;20176;-76
2022/04/04 20:27:46;;;;;;;1.47;1.37;;;;;;;12.41;46.80;94361.41;2615218;54;20191;-76
2022/04/04 20:30:15;;;;;;;2.10;2.00;;;;;;;11.67;44.85;94350.53;2615437;39;20936;-75
2022/04/04 20:32:45;;;;;;;0.83;0.83;;;;;;;11.54;44.75;94333.91;2615074;47;20176;-75
2022/04/04 20:35:18;;;;;;;6.67;2.97;;;;;;;10.71;44.45;94343.16;2614459;54;20297;-75
2022/04/04 20:37:49;;;;;;;1.47;1.37;;;;;;;9.58;46.85;94352.63;2614734;39;20597;-75
2022/04/04 20:40:18;;;;;;;1.57;1.47;;;;;;;9.08;49.37;94307.25;2613198;47;20245;-75
2022/04/04 20:42:48;;;;;;;1.80;1.33;;;;;;;10.84;51.82;94342.09;2614769;47;20687;-75
2022/04/04 20:45:17;;;;;;;1.70;1.60;;;;;;;11.00;46.22;94337.56;2614781;54;20161;-76
2022/04/04 20:47:47;;;;;;;1.50;1.43;;;;;;;11.92;49.04;94346.16;2614776;47;20168;-75
2022/04/04 20:50:19;;;;;;;4.37;2.37;;;;;;;12.33;47.23;94344.91;2614882;54;20205;-75
2022/04/04 20:52:47;;;;;;;1.60;1.50;;;;;;;12.21;42.90;94343.94;2614625;54;20180;-75
2022/04/04 20:55:16;;;;;;;2.20;2.03;;;;;;;11.14;44.25;94320.22;2614945;54;20156;-74
2022/04/04 20:57:45;;;;;;;1.90;1.57;;;;;;;10.25;44.76;94312.91;2615111;39;20604;-74
2022/04/04 21:00:17;;;;;;;2.13;1.83;;;;;;;9.47;47.84;94322.59;2614850;54;20160;-76
2022/04/04 21:02:46;;;;;;;2.37;2.27;;;;;;;8.82;49.70;94306.41;2614879;47;20183;-75
2022/04/04 21:05:18;;;;;;;1.93;1.83;;;;;;;8.58;51.08;94320.41;2615080;39;20541;-75
2022/04/04 21:07:47;;;;;;;2.00;1.90;;;;;;;8.77;50.76;94299.16;2614667;54;20141;-75
2022/04/04 21:10:16;;;;;;;2.47;2.07;;;;;;;9.88;51.58;94301.91;2613339;47;20165;-75
2022/04/04 21:12:45;;;;;;;2.00;1.80;;;;;;;11.10;50.23;94308.75;2614692;47;20169;-74
2022/04/04 21:15:14;;;;;;;4.97;3.57;;;;;;;10.51;46.87;94317.88;2615376;31;20630;-75
2022/04/04 21:17:43;;;;;;;2.77;2.30;;;;;;;9.94;47.82;94307.75;2614403;47;20152;-75
2022/04/04 21:20:14;;;;;;;1.87;1.80;;;;;;;9.81;47.04;94294.66;2614412;54;20168;-75
2022/04/04 21:22:46;;;;;;;5.70;2.47;;;;;;;10.58;47.60;94297.53;2614555;47;20648;-75
2022/04/04 21:25:15;;;;;;;4.43;2.00;;;;;;;10.37;48.28;94306.88;2615225;39;20608;-75
2022/04/04 21:27:45;;;;;;;1.90;1.80;;;;;;;11.13;48.81;94320.88;2615459;54;20301;-75
2022/04/04 21:30:15;;;;;;;1.40;1.30;;;;;;;9.33;46.75;94311.56;2614700;54;20855;-75
2022/04/04 21:32:44;;;;;;;2.37;2.07;;;;;;;9.55;50.09;94311.56;2614698;54;20141;-75
2022/04/04 21:35:13;;;;;;;4.47;2.37;;;;;;;8.83;50.75;94311.38;2614655;54;20156;-75
2022/04/04 21:37:42;;;;;;;2.63;2.53;;;;;;;8.19;51.83;94304.22;2614386;47;20671;-75
2022/04/04 21:40:14;;;;;;;1.63;1.53;;;;;;;8.99;52.14;94314.03;2614621;54;20153;-75
2022/04/04 21:42:43;;;;;;;1.53;1.53;;;;;;;9.54;51.63;94313.66;2614493;47;20172;-76
2022/04/04 21:45:13;;;;;;;3.03;2.57;;;;;;;10.13;50.36;94323.84;2614875;54;20156;-74
2022/04/04 21:47:42;;;;;;;2.37;2.20;;;;;;;9.98;48.58;94317.06;2615010;54;20176;-74
2022/04/04 21:50:11;;;;;;;2.90;2.50;;;;;;;9.84;49.42;94308.16;2614415;54;20160;-75
2022/04/04 21:52:40;;;;;;;4.10;2.80;;;;;;;9.67;49.77;94316.84;2614534;47;20200;-74
2022/04/04 21:55:14;;;;;;;3.43;2.60;;;;;;;8.68;50.20;94306.66;2614242;47;20164;-74
2022/04/04 21:57:45;;;;;;;2.53;2.33;;;;;;;8.30;52.99;94303.19;2614489;47;20149;-75
2022/04/04 22:00:18;;;;;;;5.67;2.10;;;;;;;8.02;54.38;94302.19;2614290;54;20654;-75
2022/04/04 22:02:47;;;;;;;7.10;1.60;;;;;;;9.97;55.66;94320.59;2614472;47;20187;-75
2022/04/04 22:05:16;;;;;;;1.90;1.80;;;;;;;10.48;48.85;94311.44;2614448;54;20165;-74
2022/04/04 22:07:45;;;;;;;1.80;1.70;;;;;;;10.11;49.00;94301.19;2614246;47;20145;-74
2022/04/04 22:10:18;;;;;;;1.20;1.20;;;;;;;9.24;49.96;94298.56;2614715;54;20144;-75
2022/04/04 22:12:47;;;;;;;2.53;1.70;;;;;;;8.45;52.04;94313.63;2614487;47;20161;-75
2022/04/04 22:15:17;;;;;;;1.63;1.30;;;;;;;7.16;55.06;94317.97;2614333;54;20156;-75
2022/04/04 22:17:47;;;;;;;1.37;1.27;;;;;;;6.60;56.53;94299.50;2614772;39;20553;-75
2022/04/04 22:20:17;;;;;;;0.90;0.90;;;;;;;6.59;56.92;94300.88;2614718;39;20555;-75
2022/04/04 22:22:46;;;;;;;1.80;1.40;;;;;;;7.21;55.60;94294.25;2614766;47;20152;-75
2022/04/04 22:25:18;;;;;;;1.03;1.03;;;;;;;7.66;54.57;94307.91;2615299;54;20145;-75
2022/04/04 22:27:47;;;;;;;1.63;1.53;;;;;;;7.82;57.17;94314.16;2615758;39;20558;-76
2022/04/04 22:30:16;;;;;;;1.97;1.87;;;;;;;7.62;55.67;94313.44;2615163;47;20157;-75
2022/04/04 22:32:46;;;;;;;1.70;1.60;;;;;;;7.46;55.53;94318.44;2615235;54;20727;-75
2022/04/04 22:35:17;;;;;;;1.63;1.53;;;;;;;8.10;55.65;94314.47;2615064;47;20168;-75
2022/04/04 22:37:48;;;;;;;1.50;1.40;;;;;;;10.25;55.32;94315.03;2615155;54;20167;-75
2022/04/04 22:40:22;;;;;;;1.10;1.10;;;;;;;11.26;51.81;94316.94;2615798;47;20169;-75
2022/04/04 22:42:51;;;;;;;1.97;1.83;;;;;;;11.73;50.93;94328.00;2615758;54;20161;-75
2022/04/04 22:45:19;;;;;;;1.37;1.37;;;;;;;10.41;47.76;94323.97;2615392;47;20277;-75
2022/04/04 22:47:48;;;;;;;2.07;1.73;;;;;;;9.40;49.79;94301.91;2615791;54;20168;-74
2022/04/04 22:50:32;;;;;;;2.00;1.90;;;;;;;9.02;50.22;94292.91;2615543;54;20141;-75
2022/04/04 22:53:01;;;;;;;1.57;1.57;;;;;;;9.01;50.90;94328.22;2616499;39;20606;-75
2022/04/04 22:55:33;;;;;;;1.73;1.63;;;;;;;8.51;52.22;94311.00;2615372;54;20185;-74
2022/04/04 22:58:02;;;;;;;1.50;1.40;;;;;;;8.68;52.56;94323.59;2615450;54;20244;-75
2022/04/04 23:00:31;;;;;;;2.30;2.20;;;;;;;8.50;52.81;94315.22;2614845;47;20877;-75
2022/04/04 23:03:00;;;;;;;1.93;1.83;;;;;;;8.55;54.07;94325.28;2615552;54;20133;-75
2022/04/04 23:05:29;;;;;;;4.30;3.17;;;;;;;8.35;53.53;94310.44;2615000;47;20157;-74
2022/04/04 23:07:58;;;;;;;1.47;1.30;;;;;;;8.27;53.19;94300.94;2616088;47;20161;-75
2022/04/04 23:10:27;;;;;;;1.67;1.67;;;;;;;8.07;54.30;94321.41;2615014;54;20180;-75
2022/04/04 23:12:58;;;;;;;1.50;1.40;;;;;;;7.96;55.72;94316.06;2615344;54;20160;-75
2022/04/04 23:15:27;;;;;;;1.40;1.40;;;;;;;7.84;55.20;94319.88;2615127;47;20141;-75
2022/04/04 23:17:56;;;;;;;1.70;1.30;;;;;;;8.01;56.80;94317.66;2614926;47;20165;-75
2022/04/04 23:20:24;;;;;;;2.27;2.17;;;;;;;8.10;54.96;94319.41;2614968;54;21012;-75
2022/04/04 23:22:53;;;;;;;1.43;1.40;;;;;;;6.93;56.71;94288.22;2615103;54;20161;-75
2022/04/04 23:25:22;;;;;;;1.63;1.53;;;;;;;6.43;58.42;94301.66;2615366;46;20206;-76
2022/04/04 23:27:53;;;;;;;2.07;1.37;;;;;;;5.44;61.75;94308.53;2615813;48;20188;-74
2022/04/04 23:30:24;;;;;;;2.07;1.37;;;;;;;5.38;62.54;94302.63;2615336;54;20689;-75
2022/04/04 23:32:53;;;;;;;1.37;1.37;;;;;;;5.54;62.51;94300.56;2615147;54;20145;-75
2022/04/04 23:35:23;;;;;;;1.20;1.20;;;;;;;5.97;61.56;94291.25;2615194;54;20857;-75
2022/04/04 23:37:51;;;;;;;2.03;1.93;;;;;;;6.33;59.95;94292.78;2615258;54;20187;-75
2022/04/04 23:40:20;;;;;;;3.30;2.20;;;;;;;6.04;60.88;94287.31;2615077;54;20176;-75
2022/04/04 23:42:49;;;;;;;1.63;1.60;;;;;;;5.94;61.52;94287.63;2615128;47;20160;-74
2022/04/04 23:45:18;;;;;;;2.27;1.83;;;;;;;6.52;59.86;94285.13;2615566;47;20153;-77
2022/04/04 23:47:49;;;;;;;2.90;1.83;;;;;;;6.90;58.38;94274.69;2615362;54;20165;-74
2022/04/04 23:50:18;;;;;;;1.27;1.27;;;;;;;7.00;58.16;94269.47;2616912;54;20161;-74
2022/04/04 23:52:47;;;;;;;2.63;2.17;;;;;;;6.94;58.38;94284.03;2617134;46;20227;-74
2022/04/04 23:55:16;;;;;;;2.83;2.63;;;;;;;6.30;60.14;94263.13;2615553;54;20164;-74
2022/04/04 23:57:45;;;;;;;3.17;2.17;;;;;;;5.34;62.87;94268.75;2615029;54;20283;-75
